createdAt,value
2019-04-06T00:01:09.926Z,69.96
2019-04-06T00:03:39.715Z,69.76
2019-04-06T00:06:09.629Z,70.05
2019-04-06T00:08:39.265Z,69.51
2019-04-06T00:11:09.096Z,69.21
2019-04-06T00:13:38.782Z,69.47
2019-04-06T00:16:08.327Z,69.12
2019-04-06T00:18:38.167Z,69.26
2019-04-06T00:21:07.662Z,68.93
2019-04-06T00:23:37.199Z,69.30
2019-04-06T00:26:06.609Z,69.92
2019-04-06T00:28:36.442Z,70.21
2019-04-06T00:31:22.838Z,70.50
2019-04-06T00:33:52.473Z,69.97
2019-04-06T00:36:22.065Z,69.92
2019-04-06T00:38:51.872Z,70.29
2019-04-06T00:41:21.598Z,69.81
2019-04-06T00:43:51.171Z,69.53
2019-04-06T00:46:20.918Z,70.23
2019-04-06T00:48:50.524Z,70.63
2019-04-06T00:51:20.087Z,70.85
2019-04-06T00:53:49.875Z,69.87
2019-04-06T00:56:19.590Z,69.88
2019-04-06T00:58:49.230Z,70.51
2019-04-06T01:01:19.394Z,70.84
2019-04-06T01:03:48.879Z,70.67
2019-04-06T01:06:18.730Z,70.76
2019-04-06T01:08:48.334Z,70.69
2019-04-06T01:11:18.284Z,71.13
2019-04-06T01:13:48.051Z,71.49
2019-04-06T01:16:17.546Z,71.91
2019-04-06T01:18:47.097Z,72.48
2019-04-06T01:21:16.807Z,74.06
2019-04-06T01:23:46.301Z,74.30
2019-04-06T01:26:16.038Z,74.66
2019-04-06T01:28:45.659Z,74.60
2019-04-06T01:31:15.166Z,74.83
2019-04-06T01:33:44.872Z,74.56
2019-04-06T01:36:14.449Z,74.60
2019-04-06T01:38:44.012Z,74.62
2019-04-06T01:41:13.778Z,74.27
2019-04-06T01:43:43.363Z,74.03
2019-04-06T01:46:12.810Z,74.54
2019-04-06T01:48:42.494Z,74.44
2019-04-06T01:51:12.203Z,74.71
2019-04-06T01:53:41.592Z,74.69
2019-04-06T01:56:18.366Z,74.92
2019-04-06T01:58:42.662Z,74.94
2019-04-06T02:01:18.509Z,74.80
2019-04-06T02:03:48.084Z,74.81
2019-04-06T02:06:17.914Z,74.68
2019-04-06T02:08:47.720Z,74.71
2019-04-06T02:11:17.332Z,74.93
2019-04-06T02:13:47.057Z,75.08
2019-04-06T02:16:16.825Z,74.94
2019-04-06T02:18:46.459Z,74.90
2019-04-06T02:21:15.858Z,74.90
2019-04-06T02:23:45.743Z,74.88
2019-04-06T02:26:15.590Z,74.73
2019-04-06T02:28:44.979Z,74.78
2019-04-06T02:31:23.568Z,74.61
2019-04-06T02:34:14.651Z,74.59
2019-04-06T02:36:55.450Z,74.76
2019-04-06T02:39:51.062Z,74.34
2019-04-06T02:42:42.965Z,74.02
2019-04-06T02:45:13.065Z,73.78
2019-04-06T02:47:42.548Z,73.79
2019-04-06T02:50:12.188Z,73.67
2019-04-06T02:52:41.701Z,73.60
2019-04-06T02:55:11.094Z,73.58
2019-04-06T02:57:40.669Z,73.52
2019-04-06T03:00:11.679Z,73.30
2019-04-06T03:02:41.542Z,73.40
2019-04-06T03:05:11.436Z,73.39
2019-04-06T03:07:41.146Z,73.46
2019-04-06T03:10:11.372Z,73.37
2019-04-06T03:12:41.345Z,73.18
2019-04-06T03:15:11.503Z,73.20
2019-04-06T03:17:40.902Z,73.19
2019-04-06T03:20:11.140Z,73.13
2019-04-06T03:22:40.937Z,72.60
2019-04-06T03:25:11.097Z,72.24
2019-04-06T03:27:40.885Z,72.26
2019-04-06T03:30:10.617Z,72.50
2019-04-06T03:32:40.452Z,72.90
2019-04-06T03:35:10.174Z,73.34
2019-04-06T03:37:39.662Z,73.76
2019-04-06T03:40:09.526Z,74.15
2019-04-06T03:42:38.911Z,74.36
2019-04-06T03:45:08.986Z,73.99
2019-04-06T03:47:38.767Z,73.65
2019-04-06T03:50:09.134Z,73.12
2019-04-06T03:52:38.777Z,72.96
2019-04-06T03:55:09.363Z,73.17
2019-04-06T03:57:39.268Z,72.35
2019-04-06T04:00:09.151Z,72.10
2019-04-06T04:02:38.720Z,72.29
2019-04-06T04:05:08.675Z,72.79
2019-04-06T04:07:38.381Z,72.00
2019-04-06T04:10:08.233Z,71.87
2019-04-06T04:12:37.903Z,72.04
2019-04-06T04:15:07.799Z,72.10
2019-04-06T04:17:37.522Z,72.15
2019-04-06T04:20:07.659Z,72.18
2019-04-06T04:22:37.106Z,71.90
2019-04-06T04:25:07.116Z,71.53
2019-04-06T04:27:40.824Z,71.13
2019-04-06T04:30:10.535Z,70.79
2019-04-06T04:32:39.929Z,70.62
2019-04-06T04:35:09.623Z,70.33
2019-04-06T04:37:39.157Z,70.49
2019-04-06T04:40:08.674Z,70.24
2019-04-06T04:42:38.370Z,69.92
2019-04-06T04:45:08.168Z,69.59
2019-04-06T04:47:38.135Z,69.15
2019-04-06T04:50:08.352Z,69.04
2019-04-06T04:52:37.849Z,69.14
2019-04-06T04:55:07.974Z,69.72
2019-04-06T04:57:40.956Z,69.37
2019-04-06T05:00:09.342Z,68.96
2019-04-06T05:02:39.048Z,69.16
2019-04-06T05:05:09.710Z,69.54
2019-04-06T05:07:39.485Z,69.77
2019-04-06T05:10:10.102Z,69.77
2019-04-06T05:12:39.617Z,69.31
2019-04-06T05:15:11.261Z,69.03
2019-04-06T05:17:41.071Z,69.46
2019-04-06T05:20:11.422Z,69.28
2019-04-06T05:22:40.928Z,69.46
2019-04-06T05:25:11.017Z,69.93
2019-04-06T05:27:51.223Z,70.47
2019-04-06T05:30:12.539Z,70.68
2019-04-06T05:32:41.940Z,70.65
2019-04-06T05:35:11.686Z,70.53
2019-04-06T05:37:41.216Z,70.31
2019-04-06T05:40:11.212Z,70.03
2019-04-06T05:42:40.638Z,69.70
2019-04-06T05:45:10.594Z,69.28
2019-04-06T05:47:40.278Z,68.83
2019-04-06T05:50:10.382Z,68.57
2019-04-06T05:52:40.222Z,68.19
2019-04-06T05:55:10.421Z,67.86
2019-04-06T05:57:39.913Z,67.51
2019-04-06T06:00:10.551Z,67.17
2019-04-06T06:02:41.787Z,66.96
2019-04-06T06:05:11.807Z,66.97
2019-04-06T06:07:41.525Z,66.64
2019-04-06T06:10:11.191Z,66.44
2019-04-06T06:12:41.262Z,66.31
2019-04-06T06:15:11.112Z,65.61
2019-04-06T06:17:40.545Z,65.96
2019-04-06T06:20:10.332Z,65.88
2019-04-06T06:22:39.996Z,65.38
2019-04-06T06:25:09.973Z,64.74
2019-04-06T06:27:39.364Z,65.09
2019-04-06T06:30:09.710Z,64.81
2019-04-06T06:32:39.409Z,64.66
2019-04-06T06:35:09.105Z,63.53
2019-04-06T06:37:38.837Z,64.19
2019-04-06T06:40:08.834Z,64.14
2019-04-06T06:42:38.481Z,64.03
2019-04-06T06:45:08.662Z,63.83
2019-04-06T06:47:38.429Z,63.68
2019-04-06T06:50:08.720Z,63.58
2019-04-06T06:52:38.319Z,63.41
2019-04-06T06:55:09.323Z,63.21
2019-04-06T06:57:38.903Z,63.21
2019-04-06T07:00:09.094Z,63.21
2019-04-06T07:02:38.789Z,62.88
2019-04-06T07:05:08.900Z,62.32
2019-04-06T07:07:38.619Z,62.64
2019-04-06T07:10:08.825Z,62.30
2019-04-06T07:12:38.247Z,61.93
2019-04-06T07:15:08.369Z,61.73
2019-04-06T07:17:38.182Z,61.04
2019-04-06T07:20:08.211Z,60.50
2019-04-06T07:22:37.907Z,59.86
2019-04-06T07:25:08.263Z,59.47
2019-04-06T07:27:38.078Z,59.20
2019-04-06T07:30:07.807Z,58.76
2019-04-06T07:32:37.253Z,58.33
2019-04-06T07:35:07.359Z,57.94
2019-04-06T07:37:36.770Z,57.51
2019-04-06T07:40:07.876Z,56.81
2019-04-06T07:42:37.446Z,56.07
2019-04-06T07:45:07.240Z,55.32
2019-04-06T07:47:37.033Z,54.38
2019-04-06T07:50:07.722Z,54.23
2019-04-06T07:52:37.386Z,53.16
2019-04-06T07:55:07.587Z,52.54
2019-04-06T07:57:37.006Z,51.67
2019-04-06T08:00:07.192Z,50.81
2019-04-06T08:02:37.035Z,50.41
2019-04-06T08:05:06.855Z,49.30
2019-04-06T08:07:36.302Z,48.09
2019-04-06T08:10:06.879Z,47.67
2019-04-06T08:12:36.678Z,47.01
2019-04-06T08:15:07.054Z,47.65
2019-04-06T08:17:36.943Z,48.01
2019-04-06T08:20:07.544Z,47.99
2019-04-06T08:22:37.382Z,48.25
2019-04-06T08:25:07.498Z,48.37
2019-04-06T08:27:37.323Z,48.13
2019-04-06T08:30:08.050Z,47.66
2019-04-06T08:32:37.951Z,48.17
2019-04-06T08:35:07.852Z,48.33
2019-04-06T08:37:37.432Z,47.89
2019-04-06T08:40:07.606Z,46.51
2019-04-06T08:42:37.083Z,46.07
2019-04-06T08:45:07.217Z,46.22
2019-04-06T08:47:36.735Z,46.04
2019-04-06T08:50:07.571Z,46.40
2019-04-06T08:52:37.361Z,46.44
2019-04-06T08:55:07.601Z,44.97
2019-04-06T08:57:37.462Z,46.20
2019-04-06T09:00:07.574Z,45.40
2019-04-06T09:02:37.090Z,43.97
2019-04-06T09:05:06.974Z,43.19
2019-04-06T09:07:36.642Z,43.29
2019-04-06T09:10:07.015Z,42.10
2019-04-06T09:12:36.595Z,42.71
2019-04-06T09:15:06.402Z,41.53
2019-04-06T09:17:35.893Z,41.70
2019-04-06T09:20:07.043Z,41.28
2019-04-06T09:22:36.782Z,41.00
2019-04-06T09:25:07.148Z,40.47
2019-04-06T09:27:36.554Z,39.62
2019-04-06T09:30:06.571Z,40.05
2019-04-06T09:32:36.395Z,39.40
2019-04-06T09:35:06.787Z,38.82
2019-04-06T09:37:36.492Z,37.79
2019-04-06T09:40:07.229Z,35.79
2019-04-06T09:42:36.969Z,33.28
2019-04-06T09:45:30.223Z,32.77
2019-04-06T09:48:18.835Z,31.92
2019-04-06T09:51:25.832Z,30.38
2019-04-06T09:54:06.654Z,30.23
2019-04-06T09:56:55.931Z,29.93
2019-04-06T09:59:43.282Z,29.86
2019-04-06T10:02:32.073Z,29.20
2019-04-06T10:05:20.774Z,28.90
2019-04-06T10:08:08.185Z,27.48
2019-04-06T10:10:56.573Z,28.68
2019-04-06T10:13:37.741Z,28.20
2019-04-06T10:16:22.410Z,27.20
2019-04-06T10:18:58.081Z,26.90
2019-04-06T10:21:52.957Z,27.80
2019-04-06T10:24:33.095Z,27.31
2019-04-06T10:27:27.660Z,29.09
2019-04-06T10:30:15.239Z,27.14
2019-04-06T10:32:57.600Z,26.13
2019-04-06T10:35:52.332Z,25.20
2019-04-06T10:38:59.111Z,24.95
2019-04-06T10:41:43.315Z,24.70
2019-04-06T10:44:35.047Z,24.75
2019-04-06T10:47:23.210Z,27.26
2019-04-06T10:50:09.929Z,28.74
2019-04-06T10:52:57.340Z,29.08
2019-04-06T10:55:54.800Z,27.81
2019-04-06T10:58:44.643Z,27.65
2019-04-06T11:01:30.315Z,27.57
2019-04-06T11:04:24.915Z,28.07
2019-04-06T11:07:22.539Z,28.05
2019-04-06T11:10:10.148Z,27.23
2019-04-06T11:12:57.551Z,26.65
2019-04-06T11:15:35.794Z,27.25
2019-04-06T11:18:23.737Z,27.78
2019-04-06T11:21:11.151Z,28.00
2019-04-06T11:23:58.348Z,27.98
2019-04-06T11:26:37.691Z,27.31
2019-04-06T11:29:20.209Z,26.10
2019-04-06T11:32:12.076Z,24.82
2019-04-06T11:35:00.574Z,23.64
2019-04-06T11:37:48.072Z,23.62
2019-04-06T11:40:36.767Z,24.63
2019-04-06T11:43:18.770Z,25.13
2019-04-06T11:46:10.538Z,25.84
2019-04-06T11:48:49.933Z,25.31
2019-04-06T11:51:37.599Z,25.30
2019-04-06T11:54:38.572Z,24.26
2019-04-06T11:57:23.007Z,24.22
2019-04-06T12:00:10.599Z,25.06
2019-04-06T12:03:11.670Z,24.72
2019-04-06T12:05:52.232Z,24.87
2019-04-06T12:08:49.925Z,27.04
2019-04-06T12:11:47.915Z,26.37
2019-04-06T12:14:36.525Z,26.01
2019-04-06T12:17:15.498Z,26.05
2019-04-06T12:20:02.572Z,27.64
2019-04-06T12:22:45.146Z,27.43
2019-04-06T12:25:37.039Z,28.01
2019-04-06T12:28:37.752Z,31.05
2019-04-06T12:31:32.127Z,32.63
2019-04-06T12:34:19.611Z,33.86
2019-04-06T12:37:04.875Z,35.75
2019-04-06T12:39:56.934Z,37.77
2019-04-06T12:42:45.596Z,38.00
2019-04-06T12:45:52.442Z,38.38
2019-04-06T12:48:53.223Z,38.56
2019-04-06T12:51:54.345Z,38.21
2019-04-06T12:54:34.271Z,38.17
2019-04-06T12:57:16.709Z,37.35
2019-04-06T12:59:57.561Z,35.82
2019-04-06T13:02:46.217Z,33.96
2019-04-06T13:05:43.875Z,31.04
2019-04-06T13:08:28.140Z,30.31
2019-04-06T13:11:23.038Z,29.10
2019-04-06T13:14:23.904Z,28.32
2019-04-06T13:17:21.440Z,28.82
2019-04-06T13:20:08.733Z,30.45
2019-04-06T13:23:07.002Z,29.58
2019-04-06T13:25:56.851Z,30.32
2019-04-06T13:28:46.004Z,29.94
2019-04-06T13:31:38.302Z,28.25
2019-04-06T13:34:22.569Z,27.10
2019-04-06T13:37:17.084Z,26.08
2019-04-06T13:40:11.736Z,26.16
2019-04-06T13:43:03.332Z,26.82
2019-04-06T13:45:50.767Z,28.71
2019-04-06T13:48:30.729Z,29.86
2019-04-06T13:51:13.559Z,31.25
2019-04-06T13:54:14.517Z,32.04
2019-04-06T13:57:06.321Z,33.31
2019-04-06T14:00:10.053Z,34.60
2019-04-06T14:02:55.823Z,35.51
2019-04-06T14:05:50.294Z,35.07
2019-04-06T14:08:42.092Z,35.31
2019-04-06T14:11:29.192Z,34.55
2019-04-06T14:14:29.016Z,34.91
2019-04-06T14:17:13.723Z,36.69
2019-04-06T14:20:08.377Z,38.03
2019-04-06T14:22:55.565Z,38.75
2019-04-06T14:25:39.239Z,39.82
2019-04-06T14:28:16.701Z,40.35
2019-04-06T14:31:05.787Z,40.77
2019-04-06T14:34:04.104Z,41.41
2019-04-06T14:36:55.609Z,42.02
2019-04-06T14:39:43.307Z,42.64
2019-04-06T14:42:20.040Z,42.75
2019-04-06T14:45:14.693Z,42.91
2019-04-06T14:48:03.804Z,43.59
2019-04-06T14:50:50.028Z,44.42
2019-04-06T14:53:49.106Z,44.87
2019-04-06T14:56:25.765Z,45.14
2019-04-06T14:59:24.023Z,44.75
2019-04-06T15:02:25.185Z,44.79
2019-04-06T15:05:16.770Z,46.08
2019-04-06T15:07:53.203Z,47.08
2019-04-06T15:10:47.827Z,47.46
2019-04-06T15:13:45.354Z,47.38
2019-04-06T15:16:21.268Z,47.00
2019-04-06T15:19:04.042Z,47.80
2019-04-06T15:21:56.335Z,47.68
2019-04-06T15:24:45.411Z,47.10
2019-04-06T15:27:39.987Z,47.67
2019-04-06T15:30:35.255Z,47.74
2019-04-06T15:33:24.370Z,47.56
2019-04-06T15:36:22.076Z,47.61
2019-04-06T15:39:00.429Z,47.77
2019-04-06T15:41:55.772Z,48.33
2019-04-06T15:44:47.021Z,48.92
2019-04-06T15:47:36.414Z,49.36
2019-04-06T15:50:34.199Z,49.57
2019-04-06T15:53:28.878Z,49.86
2019-04-06T15:56:17.565Z,50.05
2019-04-06T15:59:05.978Z,50.22
2019-04-06T16:02:06.771Z,50.16
2019-04-06T16:05:01.945Z,50.11
2019-04-06T16:07:56.294Z,50.01
2019-04-06T16:10:56.028Z,49.92
2019-04-06T16:13:50.212Z,49.54
2019-04-06T16:16:38.109Z,49.51
2019-04-06T16:19:29.599Z,49.52
2019-04-06T16:22:27.631Z,50.25
2019-04-06T16:25:16.200Z,50.67
2019-04-06T16:28:24.400Z,50.77
2019-04-06T16:31:04.158Z,50.43
2019-04-06T16:33:48.815Z,49.78
2019-04-06T16:36:46.863Z,50.08
2019-04-06T16:39:50.924Z,50.44
2019-04-06T16:42:51.739Z,51.75
2019-04-06T16:45:38.908Z,52.54
2019-04-06T16:48:27.786Z,53.22
2019-04-06T16:51:25.058Z,53.60
2019-04-06T16:54:13.778Z,54.17
2019-04-06T16:56:51.227Z,54.30
2019-04-06T16:59:36.405Z,54.58
2019-04-06T17:02:25.329Z,54.84
2019-04-06T17:05:20.207Z,54.88
2019-04-06T17:08:16.837Z,54.92
2019-04-06T17:11:01.820Z,54.84
2019-04-06T17:13:56.241Z,54.92
2019-04-06T17:16:51.287Z,55.23
2019-04-06T17:19:39.079Z,55.27
2019-04-06T17:22:46.167Z,55.32
2019-04-06T17:25:31.530Z,55.45
2019-04-06T17:28:17.000Z,55.60
2019-04-06T17:30:58.804Z,55.38
2019-04-06T17:33:56.362Z,55.79
2019-04-06T17:36:48.319Z,55.79
2019-04-06T17:39:34.557Z,55.81
2019-04-06T17:42:21.700Z,55.46
2019-04-06T17:45:25.454Z,55.80
2019-04-06T17:48:20.322Z,55.89
2019-04-06T17:51:08.155Z,55.51
2019-04-06T17:54:06.229Z,55.65
2019-04-06T17:57:13.175Z,55.64
2019-04-06T17:59:56.439Z,55.66
2019-04-06T18:02:48.676Z,55.71
2019-04-06T18:05:26.079Z,55.57
2019-04-06T18:08:24.618Z,55.62
2019-04-06T18:11:13.919Z,55.88
2019-04-06T18:13:48.267Z,56.12
2019-04-06T18:16:20.860Z,56.37
2019-04-06T18:18:51.091Z,56.16
2019-04-06T18:21:21.006Z,56.56
2019-04-06T18:23:50.936Z,56.26
2019-04-06T18:26:21.423Z,56.10
2019-04-06T18:28:51.576Z,56.03
2019-04-06T18:31:40.437Z,55.48
2019-04-06T18:34:10.292Z,55.27
2019-04-06T18:37:04.875Z,55.35
2019-04-06T18:39:34.573Z,55.42
2019-04-06T18:42:04.457Z,55.83
2019-04-06T18:44:34.455Z,55.94
2019-04-06T18:47:04.142Z,56.41
2019-04-06T18:49:34.218Z,56.46
2019-04-06T18:52:04.141Z,56.06
2019-04-06T18:54:33.713Z,55.50
2019-04-06T18:57:03.211Z,55.83
2019-04-06T18:59:32.687Z,55.35
2019-04-06T19:02:02.300Z,55.75
2019-04-06T19:04:31.848Z,55.71
2019-04-06T19:07:01.451Z,55.40
2019-04-06T19:09:31.545Z,55.07
2019-04-06T19:12:01.302Z,55.40
2019-04-06T19:14:30.975Z,55.75
2019-04-06T19:17:00.951Z,56.13
2019-04-06T19:19:30.813Z,56.32
2019-04-06T19:22:00.382Z,55.72
2019-04-06T19:24:30.300Z,56.21
2019-04-06T19:27:00.387Z,55.36
2019-04-06T19:29:29.889Z,55.46
2019-04-06T19:31:59.496Z,55.55
2019-04-06T19:34:29.805Z,55.60
2019-04-06T19:37:00.211Z,55.96
2019-04-06T19:39:29.993Z,55.96
2019-04-06T19:41:59.581Z,53.98
2019-04-06T19:44:29.779Z,53.66
2019-04-06T19:46:59.743Z,54.21
2019-04-06T19:49:29.646Z,54.45
2019-04-06T19:51:59.527Z,54.76
2019-04-06T19:54:29.233Z,54.01
2019-04-06T19:57:00.525Z,53.50
2019-04-06T19:59:29.931Z,53.74
2019-04-06T20:01:59.807Z,53.62
2019-04-06T20:04:29.739Z,53.78
2019-04-06T20:06:59.444Z,53.94
2019-04-06T20:09:29.214Z,54.00
2019-04-06T20:12:06.106Z,54.36
2019-04-06T20:14:30.436Z,54.64
2019-04-06T20:17:00.120Z,55.00
2019-04-06T20:19:30.088Z,55.03
2019-04-06T20:21:59.965Z,55.62
2019-04-06T20:24:30.049Z,55.66
2019-04-06T20:26:59.778Z,55.61
2019-04-06T20:29:29.528Z,55.63
2019-04-06T20:31:59.126Z,56.30
2019-04-06T20:34:29.373Z,56.27
2019-04-06T20:36:59.302Z,56.27
2019-04-06T20:39:29.144Z,56.71
2019-04-06T20:41:58.838Z,57.03
2019-04-06T20:44:28.445Z,57.09
2019-04-06T20:46:58.410Z,57.38
2019-04-06T20:49:28.202Z,57.67
2019-04-06T20:51:59.027Z,57.96
2019-04-06T20:54:29.763Z,58.00
2019-04-06T20:56:59.678Z,58.11
2019-04-06T20:59:29.484Z,58.00
2019-04-06T21:01:58.971Z,58.03
2019-04-06T21:04:29.148Z,58.20
2019-04-06T21:06:59.080Z,58.19
2019-04-06T21:09:28.606Z,58.39
2019-04-06T21:11:58.319Z,58.64
2019-04-06T21:14:28.289Z,58.40
2019-04-06T21:16:57.895Z,58.49
2019-04-06T21:19:28.159Z,58.65
2019-04-06T21:21:59.497Z,58.67
2019-04-06T21:24:29.339Z,58.73
2019-04-06T21:26:58.858Z,59.03
2019-04-06T21:29:28.339Z,58.91
2019-04-06T21:31:58.489Z,58.95
2019-04-06T21:34:28.191Z,58.96
2019-04-06T21:36:57.643Z,59.09
2019-04-06T21:39:27.910Z,59.27
2019-04-06T21:41:58.103Z,59.36
2019-04-06T21:44:27.945Z,59.01
2019-04-06T21:46:57.756Z,59.23
2019-04-06T21:49:27.966Z,59.46
2019-04-06T21:51:57.585Z,59.59
2019-04-06T21:54:27.118Z,59.87
2019-04-06T21:56:57.169Z,60.17
2019-04-06T21:59:27.009Z,60.72
2019-04-06T22:01:56.956Z,61.61
2019-04-06T22:04:27.560Z,62.88
2019-04-06T22:06:58.278Z,62.90
2019-04-06T22:09:27.897Z,63.56
2019-04-06T22:11:57.387Z,63.84
2019-04-06T22:14:27.114Z,64.41
2019-04-06T22:16:57.237Z,65.34
2019-04-06T22:19:26.861Z,65.95
2019-04-06T22:21:56.556Z,66.54
2019-04-06T22:24:26.402Z,66.98
2019-04-06T22:26:56.222Z,67.70
2019-04-06T22:29:25.650Z,67.95
2019-04-06T22:31:55.304Z,68.32
2019-04-06T22:34:35.388Z,68.26
2019-04-06T22:36:56.024Z,68.88
2019-04-06T22:39:26.028Z,69.02
2019-04-06T22:41:55.870Z,68.81
2019-04-06T22:44:25.514Z,68.54
2019-04-06T22:46:55.318Z,68.56
2019-04-06T22:49:25.084Z,68.65
2019-04-06T22:51:54.981Z,68.61
2019-04-06T22:54:24.777Z,68.86
2019-04-06T22:56:54.531Z,69.40
2019-04-06T22:59:24.336Z,69.39
2019-04-06T23:01:53.822Z,69.96
2019-04-06T23:04:48.551Z,70.02
2019-04-06T23:07:18.992Z,70.29
2019-04-06T23:09:48.670Z,70.06
2019-04-06T23:12:18.407Z,69.80
2019-04-06T23:14:48.109Z,69.47
2019-04-06T23:17:18.005Z,69.37
2019-04-06T23:19:47.584Z,69.28
2019-04-06T23:22:17.075Z,68.81
2019-04-06T23:24:46.910Z,68.93
2019-04-06T23:27:16.287Z,68.45
2019-04-06T23:29:45.757Z,67.85
2019-04-06T23:32:15.893Z,68.18
2019-04-06T23:34:57.390Z,67.78
2019-04-06T23:37:17.021Z,67.58
2019-04-06T23:39:46.883Z,67.36
2019-04-06T23:42:16.674Z,66.27
2019-04-06T23:44:46.511Z,66.22
2019-04-06T23:47:16.525Z,66.04
2019-04-06T23:49:46.242Z,65.82
2019-04-06T23:52:15.886Z,66.35
2019-04-06T23:54:45.476Z,65.88
2019-04-06T23:57:15.299Z,65.95
2019-04-06T23:59:45.091Z,65.92
